Flight Track Log - Related Links

Times and Time Zones

All times are in EDT time to prevent confusion due to time zone crossing. See the UAL4236 flight status page for this flight to view local times or setup timezone preferences in your user account.

Time Position Orientation Groundspeed Altitude Reporting Facility
EDT Latitude Longitude Course Direction KTS MPH feet Rate Location/Type
Mon 12:28:40 PM 31.7694 -106.4108 208° Southwest 210 242 5,900  Level Albuquerque Center
Mon 12:28:57 PM 31.7644 -106.4033 128° Southeast 214 246 6,000 1,519 Climbing Albuquerque Center
Mon 12:29:59 PM 31.7225 -106.3236 122° Southeast 261 300 7,900 1,790 Climbing Albuquerque Center
Mon 12:30:00 PM 31.7611 -105.9967 96° East  Level Estimated
Mon 12:31:00 PM 31.7433 -105.8706 99° East  Level FlightAware Approximate
Mon 12:31:01 PM 31.7144 -106.2278 96° East 294 338 9,700  Level Albuquerque Center
Mon 12:32:00 PM 31.7243 -105.7363 100° East  Level FlightAware Approximate
Mon 12:32:03 PM 31.7047 -106.1233 96° East 320 368 10,900  Level Albuquerque Center
Mon 12:33:00 PM 31.7100 -105.6097 96° East  Level FlightAware Approximate
Mon 12:33:05 PM 31.6953 -106.0058 95° East 359 413 12,100  Level Albuquerque Center
Mon 12:34:07 PM 31.6847 -105.8847 96° East 371 427 13,600 1,452 Climbing Albuquerque Center
Mon 12:35:09 PM 31.6739 -105.7625 96° East 377 434 15,100 1,306 Climbing Albuquerque Center
Mon 12:36:11 PM 31.6608 -105.6089 96° East 393 452 16,300 1,104 Climbing Albuquerque Center
Mon 12:37:14 PM 31.6492 -105.4789 96° East 401 461 17,400 1,056 Climbing Albuquerque Center
Mon 12:38:16 PM 31.6389 -105.3444 95° East 410 472 18,500 1,161 Climbing Albuquerque Center
Mon 12:39:18 PM 31.6269 -105.2125 96° East 408 470 19,800 1,210 Climbing Albuquerque Center
Mon 12:40:20 PM 31.6144 -105.0781 96° East 410 472 21,000 1,065 Climbing Albuquerque Center
Mon 12:41:22 PM 31.6022 -104.9397 96° East 420 483 22,000 1,210 Climbing Albuquerque Center
Mon 12:42:24 PM 31.5897 -104.8014 96° East 425 489 23,500 1,548 Climbing Albuquerque Center
Mon 12:43:26 PM 31.5750 -104.6381 96° East 420 483 25,200 1,258 Climbing Albuquerque Center
Mon 12:44:28 PM 31.5631 -104.5014 96° East 420 483 26,100 919 Climbing Albuquerque Center
Mon 12:45:30 PM 31.5497 -104.3628 96° East 425 489 27,100 968 Climbing Albuquerque Center
Mon 12:46:32 PM 31.5361 -104.2233 96° East 428 493 28,100 968 Climbing Albuquerque Center
Mon 12:47:34 PM 31.5222 -104.0850 97° East 428 493 29,100 1,016 Climbing Albuquerque Center
Mon 12:48:36 PM 31.5092 -103.9458 96° East 429 494 30,200 1,113 Climbing Albuquerque Center
Mon 12:49:38 PM 31.4928 -103.7794 97° East 430 495 31,400 1,065 Climbing Albuquerque Center
Mon 12:50:40 PM 31.4764 -103.6303 97° East 437 503 32,400 968 Climbing Albuquerque Center
Mon 12:51:42 PM 31.4608 -103.4869 97° East 443 510 33,400 968 Climbing Albuquerque Center
Mon 12:52:44 PM 31.4411 -103.3447 99° East 444 511 34,400 774 Climbing Albuquerque Center
Mon 12:53:46 PM 31.4233 -103.2003 98° East 447 514 35,000 290 Climbing Albuquerque Center
Mon 12:54:48 PM 31.4044 -103.0497 98° East 461 531 35,000 -48 Level Albuquerque Center
Mon 12:55:50 PM 31.3839 -102.8911 99° East 483 556 34,900  Descending Albuquerque Center
Mon 12:56:52 PM 31.3597 -102.7025 98° East 490 564 35,000 48 Climbing Albuquerque Center
Mon 12:57:54 PM 31.3397 -102.5461 98° East 489 563 35,000  Level Albuquerque Center
Mon 12:58:56 PM 31.3203 -102.3972 99° East 505 581 35,000  Level Albuquerque Center
Mon 12:59:58 PM 31.2994 -102.2406 99° East 496 571 35,000  Level Albuquerque Center
Mon 01:01:00 PM 31.2742 -102.0528 99° East 492 566 35,000  Level Albuquerque Center
Mon 01:02:02 PM 31.2544 -101.8964 98° East 489 563 35,000  Level Albuquerque Center
Mon 01:03:04 PM 31.2336 -101.7408 99° East 487 560 35,000  Level Albuquerque Center
Mon 01:04:43 PM 31.1983 -101.4919 99° East 487 560 35,000  Level Houston Center
Mon 01:05:45 PM 31.1747 -101.3167 99° East 489 563 35,000  Level Houston Center
Mon 01:06:47 PM 31.1528 -101.1575 99° East 494 568 35,000  Level Houston Center
Mon 01:07:49 PM 31.1303 -101.0000 99° East 494 568 35,000  Level Houston Center
Mon 01:08:51 PM 31.1075 -100.8417 99° East 494 568 35,000  Level Houston Center
Mon 01:09:53 PM 31.0850 -100.6828 99° East 495 570 35,000  Level Houston Center
Mon 01:10:55 PM 31.0619 -100.5228 100° East 497 572 35,000  Level Houston Center
Mon 01:11:57 PM 31.0342 -100.3317 100° East 498 573 35,000 -48 Level Houston Center
Mon 01:13:00 PM 31.0111 -100.1719 100° East 498 573 34,900  Descending Houston Center
Mon 01:14:02 PM 30.9867 -100.0122 100° East 499 574 35,000 48 Climbing Houston Center
Mon 01:15:04 PM 30.9628 -99.8514 100° East 501 577 35,000  Level Houston Center
Mon 01:16:06 PM 30.9386 -99.6944 100° East 496 571 35,000  Level Houston Center
Mon 01:17:08 PM 30.9153 -99.5383 100° East 492 566 35,000  Level Houston Center
Mon 01:18:10 PM 30.8867 -99.3500 100° East 492 566 35,000 -290 Level Houston Center
Mon 01:19:12 PM 30.8611 -99.1911 101° East 497 572 34,400 -768 Descending Houston Center
Mon 01:20:15 PM 30.8375 -99.0364 100° East 491 565 33,400 -960 Descending Houston Center
Mon 01:21:17 PM 30.8125 -98.8819 101° East 487 560 32,400 -968 Descending Houston Center
Mon 01:22:19 PM 30.7958 -98.7278 97° East 483 556 31,400 -1,016 Descending Houston Center
Mon 01:23:21 PM 30.8031 -98.5722 87° East 482 555 30,300 -1,016 Descending Houston Center
Mon 01:24:23 PM 30.8028 -98.4089 90° East 489 563 29,300 -629 Descending Houston Center
Mon 01:25:25 PM 30.8075 -98.2178 88° East 493 567 29,000 -145 Descending Houston Center
Mon 01:26:27 PM 30.8103 -98.0581 89° East 493 567 29,000  Level Houston Center
Mon 01:27:29 PM 30.8114 -97.8983 89° East 495 570 29,000  Level Houston Center
Mon 01:28:31 PM 30.8147 -97.7392 89° East 493 567 29,000  Level Houston Center
Mon 01:29:34 PM 30.8172 -97.5781 89° East 496 571 29,000 -384 Level Houston Center
Mon 01:30:36 PM 30.8183 -97.4175 89° East 497 572 28,200 -1,597 Descending Houston Center
Mon 01:31:38 PM 30.8208 -97.2283 89° East 489 563 25,700 -2,323 Descending Houston Center
Mon 01:32:40 PM 30.8219 -97.0719 89° East 485 558 23,400 -2,226 Descending Houston Center
Mon 01:33:42 PM 30.8181 -96.9197 92° East 472 543 21,100 -1,887 Descending Houston Center
Mon 01:34:44 PM 30.7731 -96.7753 110° East 470 541 19,500 -1,403 Descending Houston Center
Mon 01:35:46 PM 30.7253 -96.6358 112° Southeast 464 534 18,200 -1,258 Descending Houston Center
Mon 01:36:48 PM 30.6781 -96.5008 112° Southeast 452 520 16,900 -1,488 Descending Houston Center
Mon 01:37:51 PM 30.6236 -96.3456 112° Southeast 433 498 15,100 -1,657 Descending Houston Center
Mon 01:38:33 PM 30.5914 -96.2519 112° Southeast 423 487 14,000 -1,452 Descending Houston Center
Mon 01:38:53 PM 30.5772 -96.2144 114° Southeast 424 488 13,600 -1,452 Descending Houston Center
Mon 01:39:35 PM 30.5500 -96.1353 112° Southeast 396 456 12,500 -1,452 Descending Houston Center
Mon 01:39:55 PM 30.5364 -96.0981 113° Southeast 395 455 12,100 -1,455 Descending Houston Center
Mon 01:40:41 PM 30.5033 -96.0075 113° Southeast 380 437 10,900 -1,452 Descending Houston Center
Mon 01:40:57 PM 30.4953 -95.9836 111° Southeast 385 443 10,600 -964 Descending Houston Center
Mon 01:41:37 PM 30.4672 -95.9025 112° Southeast 377 434 10,000 -581 Descending Houston Center
Mon 01:41:59 PM 30.4564 -95.8744 114° Southeast 368 423 10,000  Level Houston Center
Mon 01:42:44 PM 30.4031 -95.8181 138° Southeast 312 359 10,000 -97 Level Houston Center
Mon 01:43:01 PM 30.3933 -95.8119 152° Southeast 314 361 9,900 -885 Descending Houston Center
Mon 01:43:45 PM 30.3283 -95.7783 156° South 296 341 9,100 -871 Descending Houston Center
Mon 01:44:03 PM 30.3178 -95.7719 152° Southeast 307 353 9,000 -1,180 Descending Houston Center
Mon 01:44:46 PM 30.2567 -95.7286 149° Southeast 291 335 7,900 -1,355 Descending Houston Center
Mon 01:45:05 PM 30.2364 -95.7136 147° Southeast 289 333 7,600 -1,091 Descending Houston Center
Mon 01:45:41 PM 30.1961 -95.6850 148° Southeast 280 322 6,900 -1,161 Descending Houston Center
Mon 01:46:07 PM 30.1717 -95.6664 147° Southeast 280 322 6,400 -1,343 Descending Houston Center
Mon 01:46:48 PM 30.1244 -95.6331 149° Southeast 270 311 5,400 -1,429 Descending Houston Center
Mon 01:47:10 PM 30.1086 -95.6203 145° Southeast 269 310 4,900 -1,475 Descending Houston Center
Mon 01:47:49 PM 30.0639 -95.5894 149° Southeast 252 290 3,900 -1,355 Descending Houston Center
Mon 01:48:12 PM 30.0506 -95.5775 142° Southeast 254 292 3,500 -885 Descending Houston Center
Mon 01:48:50 PM 30.0094 -95.5453 146° Southeast 242 278 3,000 -789 Descending Houston Center

Login

Don't have an account? Register now (free) for customized features, flight alerts, and more!